sensor_id;sensor_type;location;lat;lon;timestamp;pressure;altitude;pressure_sealevel;temperature;humidity
78149;BME280;67396;42.664;23.382;2023-04-01T00:01:11;94066.16;;;11.36;51.48
78149;BME280;67396;42.664;23.382;2023-04-01T00:03:41;94073.81;;;11.18;51.59
78149;BME280;67396;42.664;23.382;2023-04-01T00:06:09;94075.16;;;11.06;51.82
78149;BME280;67396;42.664;23.382;2023-04-01T00:08:36;94076.22;;;11.16;51.56
78149;BME280;67396;42.664;23.382;2023-04-01T00:11:01;94085.25;;;11.16;51.41
78149;BME280;67396;42.664;23.382;2023-04-01T00:13:27;94081.13;;;10.98;52.05
78149;BME280;67396;42.664;23.382;2023-04-01T00:15:54;94071.31;;;10.59;53.06
78149;BME280;67396;42.664;23.382;2023-04-01T00:18:20;94075.06;;;10.35;54.05
78149;BME280;67396;42.664;23.382;2023-04-01T00:20:49;94074.50;;;10.54;53.28
78149;BME280;67396;42.664;23.382;2023-04-01T00:23:16;94078.34;;;10.64;53.39
78149;BME280;67396;42.664;23.382;2023-04-01T00:25:41;94076.78;;;10.63;52.96
78149;BME280;67396;42.664;23.382;2023-04-01T00:28:07;94084.59;;;10.64;53.12
78149;BME280;67396;42.664;23.382;2023-04-01T00:30:33;94093.00;;;10.43;54.17
78149;BME280;67396;42.664;23.382;2023-04-01T00:33:00;94079.00;;;10.30;54.52
78149;BME280;67396;42.664;23.382;2023-04-01T00:35:26;94070.25;;;10.46;54.04
78149;BME280;67396;42.664;23.382;2023-04-01T00:37:51;94077.19;;;10.61;53.30
78149;BME280;67396;42.664;23.382;2023-04-01T00:40:27;94067.75;;;10.62;53.32
78149;BME280;67396;42.664;23.382;2023-04-01T00:42:53;94064.81;;;10.39;54.23
78149;BME280;67396;42.664;23.382;2023-04-01T00:47:58;94056.56;;;10.83;53.03
78149;BME280;67396;42.664;23.382;2023-04-01T00:50:25;94051.84;;;10.84;53.98
78149;BME280;67396;42.664;23.382;2023-04-01T00:52:52;94040.13;;;10.80;53.79
78149;BME280;67396;42.664;23.382;2023-04-01T00:55:19;94033.75;;;10.90;54.12
78149;BME280;67396;42.664;23.382;2023-04-01T00:57:47;94031.97;;;10.73;54.10
78149;BME280;67396;42.664;23.382;2023-04-01T01:00:15;94032.97;;;10.52;54.81
78149;BME280;67396;42.664;23.382;2023-04-01T01:02:44;94025.34;;;10.67;54.76
78149;BME280;67396;42.664;23.382;2023-04-01T01:05:14;94023.78;;;10.69;54.37
78149;BME280;67396;42.664;23.382;2023-04-01T01:07:57;94019.19;;;10.55;54.85
78149;BME280;67396;42.664;23.382;2023-04-01T01:10:31;94011.38;;;10.09;56.65
78149;BME280;67396;42.664;23.382;2023-04-01T01:16:24;94015.91;;;9.78;56.46
78149;BME280;67396;42.664;23.382;2023-04-01T01:19:15;94008.78;;;9.88;56.23
78149;BME280;67396;42.664;23.382;2023-04-01T01:24:40;94002.59;;;9.80;55.09
78149;BME280;67396;42.664;23.382;2023-04-01T01:27:19;94001.66;;;10.01;54.13
78149;BME280;67396;42.664;23.382;2023-04-01T01:30:20;94000.03;;;10.07;54.12
78149;BME280;67396;42.664;23.382;2023-04-01T01:33:13;93983.50;;;10.14;53.04
78149;BME280;67396;42.664;23.382;2023-04-01T01:35:48;93985.31;;;10.35;52.38
78149;BME280;67396;42.664;23.382;2023-04-01T01:38:18;93979.28;;;10.51;52.05
78149;BME280;67396;42.664;23.382;2023-04-01T01:40:48;93969.88;;;10.82;49.60
78149;BME280;67396;42.664;23.382;2023-04-01T01:43:21;93968.59;;;10.94;49.29
78149;BME280;67396;42.664;23.382;2023-04-01T01:45:50;93975.88;;;11.08;48.72
78149;BME280;67396;42.664;23.382;2023-04-01T01:48:17;93980.00;;;11.23;48.15
78149;BME280;67396;42.664;23.382;2023-04-01T01:50:45;93983.53;;;11.23;48.53
78149;BME280;67396;42.664;23.382;2023-04-01T01:53:12;93970.47;;;11.31;48.42
78149;BME280;67396;42.664;23.382;2023-04-01T01:55:42;93967.72;;;11.31;47.65
78149;BME280;67396;42.664;23.382;2023-04-01T01:58:13;93961.75;;;11.36;48.72
78149;BME280;67396;42.664;23.382;2023-04-01T02:00:44;93951.22;;;11.31;47.35
78149;BME280;67396;42.664;23.382;2023-04-01T02:03:13;93955.41;;;11.43;46.92
78149;BME280;67396;42.664;23.382;2023-04-01T02:05:40;93960.72;;;11.53;47.22
78149;BME280;67396;42.664;23.382;2023-04-01T02:08:15;93955.19;;;11.57;47.27
78149;BME280;67396;42.664;23.382;2023-04-01T02:10:47;93954.94;;;11.71;46.20
78149;BME280;67396;42.664;23.382;2023-04-01T02:13:50;93951.66;;;11.83;45.91
78149;BME280;67396;42.664;23.382;2023-04-01T02:16:27;93944.56;;;11.86;45.97
78149;BME280;67396;42.664;23.382;2023-04-01T02:18:55;93942.25;;;11.81;46.14
78149;BME280;67396;42.664;23.382;2023-04-01T02:21:24;93943.00;;;11.85;46.14
78149;BME280;67396;42.664;23.382;2023-04-01T02:23:53;93942.09;;;11.91;45.78
78149;BME280;67396;42.664;23.382;2023-04-01T02:26:20;93935.88;;;11.87;46.99
78149;BME280;67396;42.664;23.382;2023-04-01T02:28:46;93932.66;;;11.92;46.15
78149;BME280;67396;42.664;23.382;2023-04-01T02:31:14;93922.06;;;11.91;46.44
78149;BME280;67396;42.664;23.382;2023-04-01T02:33:40;93919.44;;;11.84;46.31
78149;BME280;67396;42.664;23.382;2023-04-01T02:36:13;93925.19;;;11.93;45.81
78149;BME280;67396;42.664;23.382;2023-04-01T02:38:41;93940.50;;;11.94;46.81
78149;BME280;67396;42.664;23.382;2023-04-01T02:41:07;93936.19;;;11.93;47.99
78149;BME280;67396;42.664;23.382;2023-04-01T02:43:32;93937.41;;;11.88;48.16
78149;BME280;67396;42.664;23.382;2023-04-01T02:45:58;93939.75;;;11.90;48.77
78149;BME280;67396;42.664;23.382;2023-04-01T02:48:23;93958.19;;;11.93;48.57
78149;BME280;67396;42.664;23.382;2023-04-01T02:50:49;93955.59;;;11.55;50.59
78149;BME280;67396;42.664;23.382;2023-04-01T02:53:15;93944.75;;;11.45;50.87
78149;BME280;67396;42.664;23.382;2023-04-01T02:55:41;93955.69;;;11.48;50.57
78149;BME280;67396;42.664;23.382;2023-04-01T02:58:07;93972.56;;;11.20;52.41
78149;BME280;67396;42.664;23.382;2023-04-01T03:00:32;93964.41;;;10.82;54.00
78149;BME280;67396;42.664;23.382;2023-04-01T03:02:57;93975.81;;;10.81;53.75
78149;BME280;67396;42.664;23.382;2023-04-01T03:05:23;93966.72;;;10.53;54.28
78149;BME280;67396;42.664;23.382;2023-04-01T03:07:49;93971.91;;;10.44;54.62
78149;BME280;67396;42.664;23.382;2023-04-01T03:10:14;93973.09;;;10.40;54.84
78149;BME280;67396;42.664;23.382;2023-04-01T03:12:40;93976.69;;;9.85;56.98
78149;BME280;67396;42.664;23.382;2023-04-01T03:15:06;93971.28;;;9.78;57.79
78149;BME280;67396;42.664;23.382;2023-04-01T03:17:31;93976.44;;;9.69;57.90
78149;BME280;67396;42.664;23.382;2023-04-01T03:19:57;93984.63;;;9.76;57.88
78149;BME280;67396;42.664;23.382;2023-04-01T03:22:22;93980.59;;;9.91;57.03
78149;BME280;67396;42.664;23.382;2023-04-01T03:24:48;93987.81;;;10.15;56.91
78149;BME280;67396;42.664;23.382;2023-04-01T03:27:14;93995.00;;;10.02;56.60
78149;BME280;67396;42.664;23.382;2023-04-01T03:29:40;93987.50;;;10.06;56.42
78149;BME280;67396;42.664;23.382;2023-04-01T03:32:05;94007.34;;;10.25;56.34
78149;BME280;67396;42.664;23.382;2023-04-01T03:34:31;94008.00;;;10.39;56.02
78149;BME280;67396;42.664;23.382;2023-04-01T03:36:57;93986.63;;;10.57;55.08
78149;BME280;67396;42.664;23.382;2023-04-01T03:39:23;93981.72;;;10.42;56.25
78149;BME280;67396;42.664;23.382;2023-04-01T03:41:48;93986.22;;;10.22;57.09
78149;BME280;67396;42.664;23.382;2023-04-01T03:44:14;93990.50;;;10.23;58.14
78149;BME280;67396;42.664;23.382;2023-04-01T03:46:40;93964.09;;;9.95;58.21
78149;BME280;67396;42.664;23.382;2023-04-01T03:49:09;93964.31;;;9.70;59.13
78149;BME280;67396;42.664;23.382;2023-04-01T03:51:39;93954.59;;;9.62;59.16
78149;BME280;67396;42.664;23.382;2023-04-01T03:54:05;93938.91;;;9.62;59.51
78149;BME280;67396;42.664;23.382;2023-04-01T03:56:31;93926.25;;;9.82;58.90
78149;BME280;67396;42.664;23.382;2023-04-01T03:58:57;93921.16;;;9.81;58.57
78149;BME280;67396;42.664;23.382;2023-04-01T04:01:22;93925.19;;;10.10;57.10
78149;BME280;67396;42.664;23.382;2023-04-01T04:03:49;93907.13;;;10.13;56.30
78149;BME280;67396;42.664;23.382;2023-04-01T04:06:17;93884.75;;;10.22;54.06
78149;BME280;67396;42.664;23.382;2023-04-01T04:08:42;93874.84;;;10.31;51.12
78149;BME280;67396;42.664;23.382;2023-04-01T04:11:08;93889.09;;;10.53;51.64
78149;BME280;67396;42.664;23.382;2023-04-01T04:13:34;93881.88;;;10.66;50.88
78149;BME280;67396;42.664;23.382;2023-04-01T04:15:59;93875.84;;;10.78;51.09
78149;BME280;67396;42.664;23.382;2023-04-01T04:18:25;93865.56;;;10.82;50.77
78149;BME280;67396;42.664;23.382;2023-04-01T04:20:50;93859.63;;;10.87;51.56
78149;BME280;67396;42.664;23.382;2023-04-01T04:23:17;93851.00;;;10.89;51.17
78149;BME280;67396;42.664;23.382;2023-04-01T04:26:00;93850.59;;;10.90;51.59
78149;BME280;67396;42.664;23.382;2023-04-01T04:28:26;93855.56;;;10.99;51.22
78149;BME280;67396;42.664;23.382;2023-04-01T04:30:53;93845.97;;;11.11;51.19
78149;BME280;67396;42.664;23.382;2023-04-01T04:33:18;93853.75;;;11.16;50.50
78149;BME280;67396;42.664;23.382;2023-04-01T04:35:44;93848.44;;;11.02;51.80
78149;BME280;67396;42.664;23.382;2023-04-01T04:38:09;93839.03;;;11.03;51.69
78149;BME280;67396;42.664;23.382;2023-04-01T04:40:39;93827.88;;;10.86;52.58
78149;BME280;67396;42.664;23.382;2023-04-01T04:43:05;93828.38;;;10.81;52.16
78149;BME280;67396;42.664;23.382;2023-04-01T04:45:31;93813.41;;;10.82;52.80
78149;BME280;67396;42.664;23.382;2023-04-01T04:47:56;93815.72;;;10.87;52.30
78149;BME280;67396;42.664;23.382;2023-04-01T04:50:23;93809.41;;;10.90;51.82
78149;BME280;67396;42.664;23.382;2023-04-01T04:52:48;93810.06;;;10.98;51.70
78149;BME280;67396;42.664;23.382;2023-04-01T04:55:14;93807.75;;;10.97;52.26
78149;BME280;67396;42.664;23.382;2023-04-01T04:57:40;93794.25;;;11.06;52.17
78149;BME280;67396;42.664;23.382;2023-04-01T05:00:06;93802.75;;;11.15;50.34
78149;BME280;67396;42.664;23.382;2023-04-01T05:02:33;93789.38;;;11.17;50.73
78149;BME280;67396;42.664;23.382;2023-04-01T05:04:58;93789.38;;;11.17;51.15
78149;BME280;67396;42.664;23.382;2023-04-01T05:07:24;93805.94;;;11.10;51.39
78149;BME280;67396;42.664;23.382;2023-04-01T05:09:49;93795.47;;;11.05;51.77
78149;BME280;67396;42.664;23.382;2023-04-01T05:12:15;93793.66;;;11.18;51.04
78149;BME280;67396;42.664;23.382;2023-04-01T05:14:40;93794.97;;;11.10;52.53
78149;BME280;67396;42.664;23.382;2023-04-01T05:17:10;93785.78;;;11.20;52.29
78149;BME280;67396;42.664;23.382;2023-04-01T05:19:36;93782.66;;;10.94;53.16
78149;BME280;67396;42.664;23.382;2023-04-01T05:22:02;93784.44;;;10.81;53.89
78149;BME280;67396;42.664;23.382;2023-04-01T05:24:28;93785.00;;;10.96;53.46
78149;BME280;67396;42.664;23.382;2023-04-01T05:26:53;93765.03;;;10.92;53.26
78149;BME280;67396;42.664;23.382;2023-04-01T05:29:18;93759.03;;;11.01;60.05
78149;BME280;67396;42.664;23.382;2023-04-01T05:31:44;93765.25;;;11.05;53.97
78149;BME280;67396;42.664;23.382;2023-04-01T05:34:09;93762.38;;;11.12;51.59
78149;BME280;67396;42.664;23.382;2023-04-01T05:36:36;93761.16;;;11.16;51.74
78149;BME280;67396;42.664;23.382;2023-04-01T05:39:20;93757.38;;;11.07;52.38
78149;BME280;67396;42.664;23.382;2023-04-01T05:41:45;93764.44;;;11.08;51.82
78149;BME280;67396;42.664;23.382;2023-04-01T05:44:11;93750.84;;;10.97;52.58
78149;BME280;67396;42.664;23.382;2023-04-01T05:46:37;93765.38;;;10.98;52.21
78149;BME280;67396;42.664;23.382;2023-04-01T05:49:02;93769.88;;;10.84;51.89
78149;BME280;67396;42.664;23.382;2023-04-01T05:51:28;93770.97;;;10.90;52.35
78149;BME280;67396;42.664;23.382;2023-04-01T05:53:53;93776.66;;;11.03;57.34
78149;BME280;67396;42.664;23.382;2023-04-01T05:56:19;93749.97;;;11.27;52.22
78149;BME280;67396;42.664;23.382;2023-04-01T05:58:50;93760.31;;;11.62;51.10
78149;BME280;67396;42.664;23.382;2023-04-01T06:01:16;93744.38;;;11.97;50.54
78149;BME280;67396;42.664;23.382;2023-04-01T06:03:41;93739.28;;;12.35;48.94
78149;BME280;67396;42.664;23.382;2023-04-01T06:06:23;93740.66;;;12.79;47.75
78149;BME280;67396;42.664;23.382;2023-04-01T06:08:49;93738.81;;;13.25;47.35
78149;BME280;67396;42.664;23.382;2023-04-01T06:14:39;93755.94;;;12.28;49.30
78149;BME280;67396;42.664;23.382;2023-04-01T06:23:21;93741.69;;;12.69;47.31
78149;BME280;67396;42.664;23.382;2023-04-01T06:28:46;93747.88;;;12.57;47.94
78149;BME280;67396;42.664;23.382;2023-04-01T06:31:25;93746.19;;;12.43;49.25
78149;BME280;67396;42.664;23.382;2023-04-01T06:40:01;93733.66;;;12.58;49.13
78149;BME280;67396;42.664;23.382;2023-04-01T07:01:00;93688.63;;;12.32;51.61
78149;BME280;67396;42.664;23.382;2023-04-01T07:03:55;93692.16;;;12.33;52.08
78149;BME280;67396;42.664;23.382;2023-04-01T07:06:57;93687.59;;;12.26;52.32
78149;BME280;67396;42.664;23.382;2023-04-01T07:09:40;93693.59;;;12.21;52.65
78149;BME280;67396;42.664;23.382;2023-04-01T07:12:16;93686.34;;;12.11;53.33
78149;BME280;67396;42.664;23.382;2023-04-01T07:14:46;93686.19;;;12.18;53.03
78149;BME280;67396;42.664;23.382;2023-04-01T07:17:30;93685.25;;;12.25;53.40
78149;BME280;67396;42.664;23.382;2023-04-01T07:20:17;93685.56;;;12.47;52.38
78149;BME280;67396;42.664;23.382;2023-04-01T07:22:50;93668.19;;;12.50;52.80
78149;BME280;67396;42.664;23.382;2023-04-01T07:25:24;93659.44;;;12.55;52.42
78149;BME280;67396;42.664;23.382;2023-04-01T07:27:52;93685.22;;;12.61;52.70
78149;BME280;67396;42.664;23.382;2023-04-01T07:34:16;93667.69;;;12.71;51.40
78149;BME280;67396;42.664;23.382;2023-04-01T07:36:59;93683.25;;;12.77;51.44
78149;BME280;67396;42.664;23.382;2023-04-01T07:39:54;93671.91;;;12.92;51.13
78149;BME280;67396;42.664;23.382;2023-04-01T07:42:57;93673.03;;;12.94;51.66
78149;BME280;67396;42.664;23.382;2023-04-01T07:48:30;93669.78;;;12.83;51.29
78149;BME280;67396;42.664;23.382;2023-04-01T07:56:49;93665.47;;;13.14;50.50
78149;BME280;67396;42.664;23.382;2023-04-01T08:15:25;93646.75;;;13.22;49.16
78149;BME280;67396;42.664;23.382;2023-04-01T08:18:01;93644.28;;;13.28;49.38
78149;BME280;67396;42.664;23.382;2023-04-01T08:20:32;93641.38;;;13.18;49.86
78149;BME280;67396;42.664;23.382;2023-04-01T08:23:25;93637.22;;;13.27;49.81
78149;BME280;67396;42.664;23.382;2023-04-01T08:26:01;93628.63;;;13.37;49.28
78149;BME280;67396;42.664;23.382;2023-04-01T08:28:49;93623.09;;;13.53;50.06
78149;BME280;67396;42.664;23.382;2023-04-01T08:33:58;93612.63;;;13.61;48.66
78149;BME280;67396;42.664;23.382;2023-04-01T08:36:32;93596.22;;;13.70;48.34
78149;BME280;67396;42.664;23.382;2023-04-01T08:39:06;93585.75;;;13.78;48.08
78149;BME280;67396;42.664;23.382;2023-04-01T08:44:30;93574.22;;;13.96;47.09
78149;BME280;67396;42.664;23.382;2023-04-01T08:55:51;93560.19;;;14.28;45.42
78149;BME280;67396;42.664;23.382;2023-04-01T09:01:40;93563.38;;;14.26;45.45
78149;BME280;67396;42.664;23.382;2023-04-01T09:07:26;93563.19;;;14.34;45.08
78149;BME280;67396;42.664;23.382;2023-04-01T09:15:45;93554.44;;;14.35;44.69
78149;BME280;67396;42.664;23.382;2023-04-01T09:21:27;93563.28;;;14.55;44.22
78149;BME280;67396;42.664;23.382;2023-04-01T09:27:04;93561.28;;;14.68;42.82
78149;BME280;67396;42.664;23.382;2023-04-01T09:35:24;93534.47;;;14.91;40.84
78149;BME280;67396;42.664;23.382;2023-04-01T09:41:29;93525.59;;;14.96;41.02
78149;BME280;67396;42.664;23.382;2023-04-01T09:44:25;93538.88;;;15.01;40.63
78149;BME280;67396;42.664;23.382;2023-04-01T09:53:28;93502.25;;;15.10;40.62
78149;BME280;67396;42.664;23.382;2023-04-01T10:01:52;93487.06;;;15.14;40.87
78149;BME280;67396;42.664;23.382;2023-04-01T10:05:10;93480.91;;;15.10;41.44
78149;BME280;67396;42.664;23.382;2023-04-01T10:24:25;93473.94;;;15.05;42.26
78149;BME280;67396;42.664;23.382;2023-04-01T10:35:19;93462.28;;;15.01;42.95
78149;BME280;67396;42.664;23.382;2023-04-01T11:07:40;93413.16;;;15.05;41.91
78149;BME280;67396;42.664;23.382;2023-04-01T11:11:20;93405.97;;;15.08;41.87
78149;BME280;67396;42.664;23.382;2023-04-01T11:20:28;93411.03;;;15.10;41.67
78149;BME280;67396;42.664;23.382;2023-04-01T11:37:20;93431.41;;;15.25;38.61
78149;BME280;67396;42.664;23.382;2023-04-01T11:43:27;93476.66;;;15.18;40.63
78149;BME280;67396;42.664;23.382;2023-04-01T11:52:39;93570.91;;;14.51;48.64
78149;BME280;67396;42.664;23.382;2023-04-01T12:03:59;93666.91;;;11.82;68.64
78149;BME280;67396;42.664;23.382;2023-04-01T12:07:00;93671.88;;;11.48;70.39
78149;BME280;67396;42.664;23.382;2023-04-01T12:09:52;93653.97;;;11.40;70.06
78149;BME280;67396;42.664;23.382;2023-04-01T12:12:48;93629.69;;;11.38;71.12
78149;BME280;67396;42.664;23.382;2023-04-01T12:26:43;93653.47;;;11.25;74.13
78149;BME280;67396;42.664;23.382;2023-04-01T12:29:35;93657.78;;;11.46;74.28
78149;BME280;67396;42.664;23.382;2023-04-01T12:38:31;93643.63;;;11.47;73.22
78149;BME280;67396;42.664;23.382;2023-04-01T12:41:14;93670.28;;;11.50;72.89
78149;BME280;67396;42.664;23.382;2023-04-01T12:52:28;93675.94;;;10.73;75.52
78149;BME280;67396;42.664;23.382;2023-04-01T13:01:14;93666.25;;;10.65;75.25
78149;BME280;67396;42.664;23.382;2023-04-01T13:12:19;93628.91;;;11.38;69.06
78149;BME280;67396;42.664;23.382;2023-04-01T13:18:25;93587.56;;;11.25;68.88
78149;BME280;67396;42.664;23.382;2023-04-01T13:27:14;93565.81;;;11.70;61.88
78149;BME280;67396;42.664;23.382;2023-04-01T13:29:59;93560.19;;;11.77;62.78
78149;BME280;67396;42.664;23.382;2023-04-01T13:32:54;93561.84;;;11.91;63.10
78149;BME280;67396;42.664;23.382;2023-04-01T13:36:02;93562.38;;;12.02;63.06
78149;BME280;67396;42.664;23.382;2023-04-01T14:02:51;93529.03;;;12.65;62.83
78149;BME280;67396;42.664;23.382;2023-04-01T14:27:32;93476.44;;;12.30;65.79
78149;BME280;67396;42.664;23.382;2023-04-01T14:33:05;93470.16;;;12.30;66.76
78149;BME280;67396;42.664;23.382;2023-04-01T14:35:46;93479.19;;;12.30;66.82
78149;BME280;67396;42.664;23.382;2023-04-01T14:41:28;93461.41;;;12.19;66.21
78149;BME280;67396;42.664;23.382;2023-04-01T14:49:42;93477.69;;;12.42;65.89
78149;BME280;67396;42.664;23.382;2023-04-01T14:52:13;93475.97;;;12.32;65.80
78149;BME280;67396;42.664;23.382;2023-04-01T14:54:42;93473.69;;;12.30;65.39
78149;BME280;67396;42.664;23.382;2023-04-01T14:57:15;93459.03;;;12.33;65.22
78149;BME280;67396;42.664;23.382;2023-04-01T14:59:51;93467.22;;;12.37;64.79
78149;BME280;67396;42.664;23.382;2023-04-01T15:04:58;93480.94;;;12.53;64.29
78149;BME280;67396;42.664;23.382;2023-04-01T15:16:39;93479.81;;;12.51;65.87
78149;BME280;67396;42.664;23.382;2023-04-01T15:22:52;93485.06;;;12.61;66.32
78149;BME280;67396;42.664;23.382;2023-04-01T15:30:40;93490.13;;;12.63;64.63
78149;BME280;67396;42.664;23.382;2023-04-01T15:41:07;93485.16;;;12.41;66.03
78149;BME280;67396;42.664;23.382;2023-04-01T15:43:45;93490.00;;;12.37;66.72
78149;BME280;67396;42.664;23.382;2023-04-01T15:52:06;93490.19;;;12.30;66.79
78149;BME280;67396;42.664;23.382;2023-04-01T16:00:46;93701.88;;;10.15;65.67
78149;BME280;67396;42.664;23.382;2023-04-01T16:06:36;93715.13;;;9.18;69.55
78149;BME280;67396;42.664;23.382;2023-04-01T16:21:48;93739.84;;;7.86;80.58
78149;BME280;67396;42.664;23.382;2023-04-01T16:24:34;93752.69;;;7.93;80.41
78149;BME280;67396;42.664;23.382;2023-04-01T16:30:36;93760.41;;;8.16;78.78
78149;BME280;67396;42.664;23.382;2023-04-01T16:33:15;93768.66;;;8.02;79.51
78149;BME280;67396;42.664;23.382;2023-04-01T16:35:58;93757.38;;;8.00;79.90
78149;BME280;67396;42.664;23.382;2023-04-01T16:38:40;93770.13;;;8.20;78.87
78149;BME280;67396;42.664;23.382;2023-04-01T16:41:33;93784.94;;;8.30;77.35
78149;BME280;67396;42.664;23.382;2023-04-01T16:46:58;93789.22;;;8.38;77.80
78149;BME280;67396;42.664;23.382;2023-04-01T16:49:51;93795.53;;;8.21;76.66
78149;BME280;67396;42.664;23.382;2023-04-01T16:52:34;93792.81;;;8.17;76.22
78149;BME280;67396;42.664;23.382;2023-04-01T16:55:21;93774.81;;;8.34;75.13
78149;BME280;67396;42.664;23.382;2023-04-01T16:57:57;93776.00;;;8.26;75.39
78149;BME280;67396;42.664;23.382;2023-04-01T17:00:41;93772.19;;;8.06;76.35
78149;BME280;67396;42.664;23.382;2023-04-01T17:03:17;93780.75;;;8.04;75.50
78149;BME280;67396;42.664;23.382;2023-04-01T17:14:32;93777.25;;;8.04;73.97
78149;BME280;67396;42.664;23.382;2023-04-01T17:20:34;93792.97;;;7.82;73.90
78149;BME280;67396;42.664;23.382;2023-04-01T17:23:33;93815.97;;;7.84;74.69
78149;BME280;67396;42.664;23.382;2023-04-01T17:29:12;93790.97;;;7.86;73.67
78149;BME280;67396;42.664;23.382;2023-04-01T17:32:07;93796.47;;;7.79;72.89
78149;BME280;67396;42.664;23.382;2023-04-01T17:34:45;93801.16;;;7.78;73.44
78149;BME280;67396;42.664;23.382;2023-04-01T17:37:38;93799.59;;;7.77;73.17
78149;BME280;67396;42.664;23.382;2023-04-01T17:43:37;93805.84;;;7.74;72.58
78149;BME280;67396;42.664;23.382;2023-04-01T17:49:22;93837.88;;;7.70;72.08
78149;BME280;67396;42.664;23.382;2023-04-01T17:52:16;93849.56;;;7.71;72.77
78149;BME280;67396;42.664;23.382;2023-04-01T18:00:21;93865.19;;;7.60;72.65
78149;BME280;67396;42.664;23.382;2023-04-01T18:08:43;93877.69;;;7.46;72.97
78149;BME280;67396;42.664;23.382;2023-04-01T18:11:30;93892.50;;;7.42;73.40
78149;BME280;67396;42.664;23.382;2023-04-01T18:14:18;93886.66;;;7.40;72.89
78149;BME280;67396;42.664;23.382;2023-04-01T18:16:59;93894.84;;;7.36;73.33
78149;BME280;67396;42.664;23.382;2023-04-01T18:19:46;93903.03;;;7.36;73.00
78149;BME280;67396;42.664;23.382;2023-04-01T18:22:26;93912.78;;;7.34;73.76
78149;BME280;67396;42.664;23.382;2023-04-01T18:24:59;93915.53;;;7.37;73.00
78149;BME280;67396;42.664;23.382;2023-04-01T18:30:11;93898.72;;;7.39;73.86
78149;BME280;67396;42.664;23.382;2023-04-01T18:32:51;93891.72;;;7.52;73.13
78149;BME280;67396;42.664;23.382;2023-04-01T18:35:24;93902.25;;;7.57;73.10
78149;BME280;67396;42.664;23.382;2023-04-01T18:43:42;93915.91;;;7.36;72.68
78149;BME280;67396;42.664;23.382;2023-04-01T18:46:36;93924.47;;;7.31;72.64
78149;BME280;67396;42.664;23.382;2023-04-01T18:52:17;93920.19;;;7.33;72.87
78149;BME280;67396;42.664;23.382;2023-04-01T18:57:27;93927.59;;;7.43;72.87
78149;BME280;67396;42.664;23.382;2023-04-01T19:00:36;93934.63;;;7.48;73.06
78149;BME280;67396;42.664;23.382;2023-04-01T19:03:21;93937.75;;;7.71;72.57
78149;BME280;67396;42.664;23.382;2023-04-01T19:05:51;93942.81;;;7.73;71.53
78149;BME280;67396;42.664;23.382;2023-04-01T19:08:27;93948.69;;;7.82;70.23
78149;BME280;67396;42.664;23.382;2023-04-01T19:22:21;93952.16;;;8.04;69.90
78149;BME280;67396;42.664;23.382;2023-04-01T19:27:51;93964.22;;;8.42;68.08
78149;BME280;67396;42.664;23.382;2023-04-01T19:32:58;93964.97;;;8.28;66.75
78149;BME280;67396;42.664;23.382;2023-04-01T19:35:47;93963.44;;;8.34;66.37
78149;BME280;67396;42.664;23.382;2023-04-01T19:38:37;93973.59;;;8.41;66.31
78149;BME280;67396;42.664;23.382;2023-04-01T19:46:40;93986.09;;;8.38;65.22
78149;BME280;67396;42.664;23.382;2023-04-01T19:52:04;93988.84;;;8.17;66.39
78149;BME280;67396;42.664;23.382;2023-04-01T19:58:15;93981.81;;;8.16;65.43
78149;BME280;67396;42.664;23.382;2023-04-01T20:00:41;94001.69;;;8.20;65.29
78149;BME280;67396;42.664;23.382;2023-04-01T20:03:48;94002.88;;;8.19;65.21
78149;BME280;67396;42.664;23.382;2023-04-01T20:09:24;93990.00;;;8.26;64.27
78149;BME280;67396;42.664;23.382;2023-04-01T20:14:58;93988.84;;;8.35;63.99
78149;BME280;67396;42.664;23.382;2023-04-01T20:17:26;93994.69;;;8.33;63.39
78149;BME280;67396;42.664;23.382;2023-04-01T20:27:56;94002.50;;;8.24;63.05
78149;BME280;67396;42.664;23.382;2023-04-01T20:41:49;94002.50;;;8.31;62.08
78149;BME280;67396;42.664;23.382;2023-04-01T21:17:54;94034.53;;;7.91;62.43
78149;BME280;67396;42.664;23.382;2023-04-01T21:34:55;94021.66;;;8.06;61.00
78149;BME280;67396;42.664;23.382;2023-04-01T21:37:28;94032.56;;;8.03;61.29
78149;BME280;67396;42.664;23.382;2023-04-01T22:04:18;94030.63;;;7.89;61.68
78149;BME280;67396;42.664;23.382;2023-04-01T22:06:49;94037.66;;;7.86;61.90
78149;BME280;67396;42.664;23.382;2023-04-01T22:12:19;94025.56;;;7.80;61.41
78149;BME280;67396;42.664;23.382;2023-04-01T22:18:08;94029.06;;;7.74;61.85
78149;BME280;67396;42.664;23.382;2023-04-01T22:20:41;94023.59;;;7.74;62.04
78149;BME280;67396;42.664;23.382;2023-04-01T22:24:06;94018.13;;;7.67;61.97
78149;BME280;67396;42.664;23.382;2023-04-01T22:34:33;94015.78;;;7.76;62.20
78149;BME280;67396;42.664;23.382;2023-04-01T22:37:18;94013.47;;;7.81;62.56
78149;BME280;67396;42.664;23.382;2023-04-01T22:50:40;94036.06;;;7.85;61.46
78149;BME280;67396;42.664;23.382;2023-04-01T22:55:50;94037.25;;;7.77;61.11
78149;BME280;67396;42.664;23.382;2023-04-01T22:58:24;94048.56;;;7.79;60.31
78149;BME280;67396;42.664;23.382;2023-04-01T23:00:56;94039.56;;;7.68;61.22
78149;BME280;67396;42.664;23.382;2023-04-01T23:03:38;94037.25;;;7.70;60.57
78149;BME280;67396;42.664;23.382;2023-04-01T23:06:05;94038.03;;;7.85;59.51
78149;BME280;67396;42.664;23.382;2023-04-01T23:19:29;94037.25;;;7.88;59.42
78149;BME280;67396;42.664;23.382;2023-04-01T23:25:04;94058.34;;;7.91;59.13
78149;BME280;67396;42.664;23.382;2023-04-01T23:38:23;94062.63;;;7.88;59.76
78149;BME280;67396;42.664;23.382;2023-04-01T23:40:52;94059.50;;;7.93;59.06
78149;BME280;67396;42.664;23.382;2023-04-01T23:43:27;94057.94;;;8.14;58.25
78149;BME280;67396;42.664;23.382;2023-04-01T23:45:58;94059.50;;;8.04;58.71
78149;BME280;67396;42.664;23.382;2023-04-01T23:48:31;94064.59;;;7.91;59.04